createdAt,value
2018-07-24T00:00:19.751Z,992.37
2018-07-24T00:02:12.615Z,992.37
2018-07-24T00:03:12.517Z,992.40
2018-07-24T00:05:05.346Z,992.43
2018-07-24T00:06:05.252Z,992.37
2018-07-24T00:07:58.108Z,992.41
2018-07-24T00:08:58.006Z,992.39
2018-07-24T00:10:50.899Z,992.40
2018-07-24T00:11:50.767Z,992.43
2018-07-24T00:13:43.517Z,992.42
2018-07-24T00:14:43.405Z,992.43
2018-07-24T00:16:36.255Z,992.42
2018-07-24T00:17:36.144Z,992.43
2018-07-24T00:19:29.007Z,992.43
2018-07-24T00:20:28.916Z,992.40
2018-07-24T00:22:21.751Z,992.41
2018-07-24T00:23:21.671Z,992.39
2018-07-24T00:25:15.025Z,992.39
2018-07-24T00:26:14.913Z,992.34
2018-07-24T00:28:07.675Z,992.39
2018-07-24T00:29:07.574Z,992.41
2018-07-24T00:31:00.427Z,992.34
2018-07-24T00:32:00.373Z,992.34
2018-07-24T00:33:53.188Z,992.34
2018-07-24T00:34:53.057Z,992.32
2018-07-24T00:36:46.941Z,992.35
2018-07-24T00:37:46.827Z,992.36
2018-07-24T00:39:39.715Z,992.34
2018-07-24T00:40:39.592Z,992.35
2018-07-24T00:42:32.570Z,992.27
2018-07-24T00:43:32.343Z,992.30
2018-07-24T00:45:25.192Z,992.30
2018-07-24T00:46:25.082Z,992.32
2018-07-24T00:48:17.933Z,992.31
2018-07-24T00:49:17.826Z,992.32
2018-07-24T00:51:10.688Z,992.32
2018-07-24T00:52:10.570Z,992.33
2018-07-24T00:54:03.473Z,992.34
2018-07-24T00:55:03.225Z,992.31
2018-07-24T00:56:56.085Z,992.29
2018-07-24T00:57:55.980Z,992.28
2018-07-24T00:59:48.872Z,992.30
2018-07-24T01:00:48.742Z,992.26
2018-07-24T01:02:41.459Z,992.28
2018-07-24T01:03:41.369Z,992.28
2018-07-24T01:05:34.135Z,992.28
2018-07-24T01:06:34.034Z,992.29
2018-07-24T01:08:26.790Z,992.26
2018-07-24T01:09:26.672Z,992.23
2018-07-24T01:11:19.538Z,992.20
2018-07-24T01:12:19.415Z,992.20
2018-07-24T01:14:12.157Z,992.19
2018-07-24T01:15:12.060Z,992.15
2018-07-24T01:17:05.433Z,992.16
2018-07-24T01:18:05.324Z,992.18
2018-07-24T01:19:58.166Z,992.15
2018-07-24T01:20:58.079Z,992.18
2018-07-24T01:22:50.963Z,992.17
2018-07-24T01:23:50.907Z,992.13
2018-07-24T01:25:43.840Z,992.14
2018-07-24T01:26:43.592Z,992.16
2018-07-24T01:28:36.430Z,992.19
2018-07-24T01:29:36.358Z,992.20
2018-07-24T01:31:29.184Z,992.17
2018-07-24T01:32:29.075Z,992.20
2018-07-24T01:34:22.116Z,992.16
2018-07-24T01:35:21.851Z,992.19
2018-07-24T01:37:14.702Z,992.17
2018-07-24T01:38:14.581Z,992.17
2018-07-24T01:40:07.541Z,992.13
2018-07-24T01:41:07.595Z,992.10
2018-07-24T01:43:00.302Z,992.10
2018-07-24T01:44:00.228Z,992.13
2018-07-24T01:45:53.008Z,992.12
2018-07-24T01:46:52.923Z,992.10
2018-07-24T01:48:45.813Z,992.09
2018-07-24T01:49:45.673Z,992.11
2018-07-24T01:51:38.655Z,992.09
2018-07-24T01:52:38.498Z,992.09
2018-07-24T01:54:31.292Z,992.06
2018-07-24T01:55:31.186Z,992.09
2018-07-24T01:57:24.060Z,992.11
2018-07-24T01:58:23.917Z,992.15
2018-07-24T02:00:16.679Z,992.09
2018-07-24T02:01:16.574Z,992.11
2018-07-24T02:03:09.853Z,992.11
2018-07-24T02:04:09.727Z,992.09
2018-07-24T02:06:02.569Z,992.09
2018-07-24T02:07:02.479Z,992.10
2018-07-24T02:08:55.238Z,992.08
2018-07-24T02:09:55.127Z,992.10
2018-07-24T02:11:47.973Z,992.10
2018-07-24T02:12:47.886Z,992.09
2018-07-24T02:14:40.634Z,992.09
2018-07-24T02:15:40.532Z,992.08
2018-07-24T02:17:33.359Z,992.12
2018-07-24T02:18:33.277Z,992.10
2018-07-24T02:20:26.039Z,992.08
2018-07-24T02:21:26.039Z,992.07
2018-07-24T02:23:18.765Z,992.08
2018-07-24T02:24:18.660Z,992.09
2018-07-24T02:26:11.537Z,992.07
2018-07-24T02:27:11.413Z,992.05
2018-07-24T02:29:04.671Z,992.07
2018-07-24T02:30:04.580Z,992.09
2018-07-24T02:31:57.390Z,992.04
2018-07-24T02:32:57.220Z,992.05
2018-07-24T02:34:50.117Z,992.05
2018-07-24T02:35:49.968Z,992.08
2018-07-24T02:37:42.842Z,992.04
2018-07-24T02:38:42.721Z,992.00
2018-07-24T02:40:35.578Z,991.98
2018-07-24T02:41:35.473Z,992.01
2018-07-24T02:43:28.325Z,992.01
2018-07-24T02:44:28.250Z,991.95
2018-07-24T02:46:21.088Z,991.99
2018-07-24T02:47:20.968Z,991.94
2018-07-24T02:49:13.739Z,991.90
2018-07-24T02:50:13.640Z,991.93
2018-07-24T02:52:06.500Z,991.97
2018-07-24T02:53:06.361Z,991.93
2018-07-24T02:54:59.204Z,991.94
2018-07-24T02:55:59.110Z,991.96
2018-07-24T02:57:51.900Z,991.90
2018-07-24T02:58:51.851Z,991.92
2018-07-24T03:00:44.619Z,991.91
2018-07-24T03:01:44.510Z,991.92
2018-07-24T03:03:37.363Z,991.90
2018-07-24T03:04:37.273Z,991.85
2018-07-24T03:06:30.160Z,991.91
2018-07-24T03:07:30.028Z,991.88
2018-07-24T03:09:22.862Z,991.93
2018-07-24T03:10:22.770Z,991.93
2018-07-24T03:12:15.616Z,991.94
2018-07-24T03:13:15.509Z,991.91
2018-07-24T03:15:08.380Z,991.92
2018-07-24T03:16:08.318Z,991.92
2018-07-24T03:18:01.631Z,991.92
2018-07-24T03:19:01.521Z,991.85
2018-07-24T03:20:54.362Z,991.85
2018-07-24T03:21:54.273Z,991.83
2018-07-24T03:23:47.065Z,991.82
2018-07-24T03:24:46.926Z,991.83
2018-07-24T03:26:39.775Z,991.82
2018-07-24T03:27:39.562Z,991.80
2018-07-24T03:29:32.356Z,991.81
2018-07-24T03:30:32.230Z,991.81
2018-07-24T03:32:25.086Z,991.83
2018-07-24T03:33:24.959Z,991.81
2018-07-24T03:35:17.826Z,991.81
2018-07-24T03:36:17.712Z,991.75
2018-07-24T03:38:10.587Z,991.78
2018-07-24T03:39:10.469Z,991.80
2018-07-24T03:41:03.405Z,991.79
2018-07-24T03:42:03.227Z,991.79
2018-07-24T03:43:56.085Z,991.75
2018-07-24T03:44:56.021Z,991.77
2018-07-24T03:46:48.833Z,991.78
2018-07-24T03:47:48.710Z,991.74
2018-07-24T03:49:41.563Z,991.76
2018-07-24T03:50:41.454Z,991.78
2018-07-24T03:52:34.310Z,991.76
2018-07-24T03:53:34.222Z,991.79
2018-07-24T03:55:27.066Z,991.81
2018-07-24T03:56:26.954Z,991.83
2018-07-24T03:58:19.702Z,991.82
2018-07-24T03:59:19.610Z,991.82
2018-07-24T04:01:12.361Z,991.83
2018-07-24T04:02:12.313Z,991.79
2018-07-24T04:04:05.001Z,991.81
2018-07-24T04:05:04.911Z,991.79
2018-07-24T04:06:58.164Z,991.80
2018-07-24T04:07:58.067Z,991.86
2018-07-24T04:09:50.939Z,991.81
2018-07-24T04:10:50.837Z,991.84
2018-07-24T04:12:44.595Z,991.83
2018-07-24T04:13:43.562Z,991.83
2018-07-24T04:15:36.821Z,991.84
2018-07-24T04:16:36.746Z,991.84
2018-07-24T04:18:29.575Z,991.84
2018-07-24T04:19:29.466Z,991.87
2018-07-24T04:21:22.221Z,991.86
2018-07-24T04:22:22.125Z,991.85
2018-07-24T04:24:14.950Z,991.85
2018-07-24T04:25:14.903Z,991.84
2018-07-24T04:27:07.716Z,991.86
2018-07-24T04:28:07.641Z,991.85
2018-07-24T04:30:00.510Z,991.84
2018-07-24T04:31:00.414Z,991.84
2018-07-24T04:32:53.213Z,991.85
2018-07-24T04:33:53.122Z,991.86
2018-07-24T04:35:45.968Z,991.87
2018-07-24T04:36:45.877Z,991.85
2018-07-24T04:38:38.709Z,991.83
2018-07-24T04:39:38.631Z,991.83
2018-07-24T04:41:31.492Z,991.84
2018-07-24T04:42:31.359Z,991.81
2018-07-24T04:44:24.108Z,991.82
2018-07-24T04:45:24.007Z,991.80
2018-07-24T04:47:16.861Z,991.84
2018-07-24T04:48:16.761Z,991.86
2018-07-24T04:50:09.531Z,991.88
2018-07-24T04:51:09.412Z,991.93
2018-07-24T04:53:02.271Z,991.90
2018-07-24T04:54:02.167Z,991.93
2018-07-24T04:55:54.911Z,991.92
2018-07-24T04:56:54.799Z,991.93
2018-07-24T04:58:47.635Z,991.92
2018-07-24T04:59:47.554Z,991.93
2018-07-24T05:01:40.322Z,991.91
2018-07-24T05:02:40.282Z,991.95
2018-07-24T05:04:33.049Z,992.00
2018-07-24T05:05:32.853Z,991.98
2018-07-24T05:07:25.703Z,991.98
2018-07-24T05:08:25.606Z,991.96
2018-07-24T05:10:18.350Z,991.96
2018-07-24T05:11:18.239Z,991.96
2018-07-24T05:13:11.085Z,991.94
2018-07-24T05:14:11.005Z,991.97
2018-07-24T05:16:03.840Z,991.92
2018-07-24T05:17:03.740Z,991.90
2018-07-24T05:18:56.500Z,991.95
2018-07-24T05:19:56.421Z,991.99
2018-07-24T05:21:49.288Z,992.01
2018-07-24T05:22:49.181Z,991.97
2018-07-24T05:24:42.053Z,991.97
2018-07-24T05:25:41.893Z,991.98
2018-07-24T05:27:34.730Z,991.97
2018-07-24T05:28:34.639Z,991.97
2018-07-24T05:30:27.492Z,991.99
2018-07-24T05:31:27.411Z,991.99
2018-07-24T05:33:20.146Z,992.02
2018-07-24T05:34:20.057Z,992.00
2018-07-24T05:36:12.790Z,992.04
2018-07-24T05:37:12.696Z,992.02
2018-07-24T05:39:05.523Z,992.01
2018-07-24T05:40:05.435Z,991.99
2018-07-24T05:41:58.279Z,992.01
2018-07-24T05:42:58.177Z,992.04
2018-07-24T05:44:50.931Z,991.98
2018-07-24T05:45:50.827Z,992.04
2018-07-24T05:47:43.672Z,992.05
2018-07-24T05:48:43.631Z,992.06
2018-07-24T05:50:36.334Z,992.09
2018-07-24T05:51:36.236Z,992.06
2018-07-24T05:53:29.060Z,992.11
2018-07-24T05:54:28.978Z,992.08
2018-07-24T05:56:21.843Z,992.06
2018-07-24T05:57:21.623Z,992.01
2018-07-24T05:59:14.486Z,991.99
2018-07-24T06:00:14.391Z,992.01
2018-07-24T06:02:07.168Z,992.05
2018-07-24T06:03:07.049Z,992.02
2018-07-24T06:04:59.872Z,992.00
2018-07-24T06:05:59.830Z,992.02
2018-07-24T06:07:52.610Z,992.01
2018-07-24T06:08:52.517Z,992.00
2018-07-24T06:10:45.297Z,992.04
2018-07-24T06:11:45.177Z,992.06
2018-07-24T06:13:38.064Z,992.04
2018-07-24T06:14:37.911Z,992.01
2018-07-24T06:16:30.782Z,992.06
2018-07-24T06:17:30.706Z,992.06
2018-07-24T06:19:23.615Z,992.11
2018-07-24T06:20:23.418Z,992.08
2018-07-24T06:22:17.398Z,992.10
2018-07-24T06:23:16.182Z,992.07
2018-07-24T06:25:09.047Z,992.05
2018-07-24T06:26:08.946Z,992.06
2018-07-24T06:28:02.367Z,992.06
2018-07-24T06:29:02.277Z,992.08
2018-07-24T06:30:55.138Z,992.09
2018-07-24T06:31:55.050Z,992.09
2018-07-24T06:33:47.906Z,992.08
2018-07-24T06:34:47.779Z,992.09
2018-07-24T06:36:40.640Z,992.11
2018-07-24T06:37:40.534Z,992.11
2018-07-24T06:39:33.385Z,992.13
2018-07-24T06:40:33.272Z,992.08
2018-07-24T06:42:26.145Z,992.05
2018-07-24T06:43:26.026Z,992.08
2018-07-24T06:45:18.883Z,992.04
2018-07-24T06:46:18.799Z,992.07
2018-07-24T06:48:11.614Z,992.04
2018-07-24T06:49:11.522Z,992.06
2018-07-24T06:51:04.447Z,992.07
2018-07-24T06:52:04.350Z,992.05
2018-07-24T06:53:57.113Z,992.09
2018-07-24T06:54:57.026Z,992.07
2018-07-24T06:56:49.888Z,992.08
2018-07-24T06:57:49.797Z,992.08
2018-07-24T06:59:42.627Z,992.01
2018-07-24T07:00:42.520Z,992.03
2018-07-24T07:02:35.414Z,992.03
2018-07-24T07:03:35.285Z,992.03
2018-07-24T07:05:28.134Z,992.04
2018-07-24T07:06:28.020Z,992.01
2018-07-24T07:08:20.884Z,992.06
2018-07-24T07:09:20.771Z,992.07
2018-07-24T07:11:13.631Z,992.05
2018-07-24T07:12:13.544Z,992.07
2018-07-24T07:14:06.359Z,992.06
2018-07-24T07:15:06.291Z,992.04
2018-07-24T07:16:59.133Z,992.06
2018-07-24T07:17:59.018Z,992.00
2018-07-24T07:19:51.868Z,992.00
2018-07-24T07:20:51.788Z,992.01
2018-07-24T07:22:44.639Z,992.03
2018-07-24T07:23:44.527Z,992.05
2018-07-24T07:25:37.371Z,992.00
2018-07-24T07:26:37.267Z,991.99
2018-07-24T07:28:30.150Z,992.04
2018-07-24T07:29:30.024Z,992.02
2018-07-24T07:31:22.864Z,992.03
2018-07-24T07:32:22.831Z,992.06
2018-07-24T07:34:15.624Z,992.05
2018-07-24T07:35:15.521Z,992.05
2018-07-24T07:37:08.364Z,992.08
2018-07-24T07:38:08.275Z,992.04
2018-07-24T07:40:01.131Z,991.99
2018-07-24T07:41:01.014Z,991.98
2018-07-24T07:42:54.285Z,992.01
2018-07-24T07:43:54.244Z,992.00
2018-07-24T07:45:47.019Z,991.95
2018-07-24T07:46:46.930Z,991.96
2018-07-24T07:48:39.789Z,991.91
2018-07-24T07:49:39.689Z,991.89
2018-07-24T07:51:32.540Z,991.92
2018-07-24T07:52:32.473Z,991.92
2018-07-24T07:54:25.277Z,991.91
2018-07-24T07:55:25.185Z,991.87
2018-07-24T07:57:18.100Z,991.89
2018-07-24T07:58:17.953Z,991.92
2018-07-24T08:00:10.791Z,991.91
2018-07-24T08:01:10.689Z,991.92
2018-07-24T08:03:03.518Z,991.93
2018-07-24T08:04:03.436Z,991.93
2018-07-24T08:05:56.313Z,991.89
2018-07-24T08:06:56.172Z,991.92
2018-07-24T08:08:49.011Z,991.91
2018-07-24T08:09:48.950Z,991.94
2018-07-24T08:11:41.779Z,991.92
2018-07-24T08:12:41.670Z,991.90
2018-07-24T08:14:34.529Z,991.89
2018-07-24T08:15:34.421Z,991.91
2018-07-24T08:17:27.258Z,991.91
2018-07-24T08:18:27.220Z,991.89
2018-07-24T08:20:20.067Z,991.93
2018-07-24T08:21:19.920Z,991.91
2018-07-24T08:23:12.798Z,991.91
2018-07-24T08:24:12.708Z,991.92
2018-07-24T08:26:05.541Z,991.88
2018-07-24T08:27:05.436Z,991.93
2018-07-24T08:28:58.339Z,991.89
2018-07-24T08:29:58.173Z,991.87
2018-07-24T08:31:51.542Z,991.87
2018-07-24T08:32:51.482Z,991.89
2018-07-24T08:34:44.273Z,991.86
2018-07-24T08:35:44.200Z,991.85
2018-07-24T08:37:37.118Z,991.84
2018-07-24T08:38:36.940Z,991.81
2018-07-24T08:40:29.797Z,991.85
2018-07-24T08:41:29.687Z,991.84
2018-07-24T08:43:22.535Z,991.86
2018-07-24T08:44:22.477Z,991.85
2018-07-24T08:46:15.285Z,991.87
2018-07-24T08:47:15.190Z,991.88
2018-07-24T08:49:08.093Z,991.86
2018-07-24T08:50:07.946Z,991.87
2018-07-24T08:52:00.792Z,991.86
2018-07-24T08:53:00.755Z,991.84
2018-07-24T08:54:53.901Z,991.81
2018-07-24T08:55:53.435Z,991.85
2018-07-24T08:57:46.343Z,991.86
2018-07-24T08:58:46.197Z,991.85
2018-07-24T09:00:39.049Z,991.83
2018-07-24T09:01:38.938Z,991.81
2018-07-24T09:03:31.886Z,991.80
2018-07-24T09:04:31.695Z,991.79
2018-07-24T09:06:24.534Z,991.84
2018-07-24T09:07:24.452Z,991.78
2018-07-24T09:09:17.295Z,991.84
2018-07-24T09:10:17.259Z,991.82
2018-07-24T09:12:10.074Z,991.80
2018-07-24T09:13:09.944Z,991.81
2018-07-24T09:15:02.791Z,991.81
2018-07-24T09:16:02.684Z,991.79
2018-07-24T09:17:55.558Z,991.77
2018-07-24T09:18:55.581Z,991.78
2018-07-24T09:20:48.292Z,991.75
2018-07-24T09:21:48.209Z,991.77
2018-07-24T09:23:41.030Z,991.81
2018-07-24T09:24:40.959Z,991.78
2018-07-24T09:26:33.780Z,991.77
2018-07-24T09:27:33.686Z,991.77
2018-07-24T09:29:26.518Z,991.76
2018-07-24T09:30:26.445Z,991.77
2018-07-24T09:32:19.299Z,991.81
2018-07-24T09:33:19.212Z,991.76
2018-07-24T09:35:12.053Z,991.76
2018-07-24T09:36:11.935Z,991.73
2018-07-24T09:38:04.763Z,991.66
2018-07-24T09:39:04.694Z,991.68
2018-07-24T09:40:57.541Z,991.69
2018-07-24T09:41:57.430Z,991.69
2018-07-24T09:43:50.262Z,991.72
2018-07-24T09:44:50.185Z,991.73
2018-07-24T09:46:43.030Z,991.71
2018-07-24T09:47:42.935Z,991.72
2018-07-24T09:49:35.758Z,991.63
2018-07-24T09:50:35.740Z,991.65
2018-07-24T09:52:28.526Z,991.58
2018-07-24T09:53:28.437Z,991.62
2018-07-24T09:55:21.258Z,991.58
2018-07-24T09:56:21.210Z,991.54
2018-07-24T09:58:14.055Z,991.56
2018-07-24T09:59:13.981Z,991.60
2018-07-24T10:01:06.775Z,991.59
2018-07-24T10:02:06.681Z,991.53
2018-07-24T10:03:59.534Z,991.53
2018-07-24T10:04:59.430Z,991.60
2018-07-24T10:06:52.269Z,991.54
2018-07-24T10:07:52.177Z,991.56
2018-07-24T10:09:45.024Z,991.49
2018-07-24T10:10:44.925Z,991.48
2018-07-24T10:12:37.791Z,991.46
2018-07-24T10:13:37.671Z,991.44
2018-07-24T10:15:30.533Z,991.43
2018-07-24T10:16:30.453Z,991.40
2018-07-24T10:18:23.383Z,991.46
2018-07-24T10:19:23.189Z,991.46
2018-07-24T10:21:16.002Z,991.40
2018-07-24T10:22:15.932Z,991.41
2018-07-24T10:24:08.776Z,991.41
2018-07-24T10:25:08.678Z,991.42
2018-07-24T10:27:01.523Z,991.41
2018-07-24T10:28:01.426Z,991.38
2018-07-24T10:29:54.275Z,991.40
2018-07-24T10:30:54.215Z,991.37
2018-07-24T10:32:47.529Z,991.28
2018-07-24T10:33:47.428Z,991.33
2018-07-24T10:35:40.312Z,991.32
2018-07-24T10:36:40.179Z,991.29
2018-07-24T10:38:33.029Z,991.29
2018-07-24T10:39:32.933Z,991.28
2018-07-24T10:41:25.761Z,991.27
2018-07-24T10:42:25.686Z,991.29
2018-07-24T10:44:18.538Z,991.27
2018-07-24T10:45:18.443Z,991.30
2018-07-24T10:47:11.275Z,991.25
2018-07-24T10:48:11.187Z,991.25
2018-07-24T10:50:04.031Z,991.25
2018-07-24T10:51:03.931Z,991.26
2018-07-24T10:52:56.764Z,991.23
2018-07-24T10:53:56.688Z,991.21
2018-07-24T10:55:49.553Z,991.16
2018-07-24T10:56:49.432Z,991.18
2018-07-24T10:58:42.279Z,991.21
2018-07-24T10:59:42.199Z,991.20
2018-07-24T11:01:35.043Z,991.12
2018-07-24T11:02:34.931Z,991.16
2018-07-24T11:04:27.798Z,991.18
2018-07-24T11:05:27.680Z,991.16
2018-07-24T11:07:20.541Z,991.14
2018-07-24T11:08:20.432Z,991.15
2018-07-24T11:10:13.298Z,991.09
2018-07-24T11:11:13.187Z,991.04
2018-07-24T11:13:06.104Z,991.04
2018-07-24T11:14:06.019Z,991.08
2018-07-24T11:15:58.778Z,991.06
2018-07-24T11:16:58.677Z,991.07
2018-07-24T11:18:51.660Z,991.03
2018-07-24T11:19:51.445Z,991.01
2018-07-24T11:21:44.272Z,991.00
2018-07-24T11:22:44.313Z,990.98
2018-07-24T11:24:37.036Z,990.94
2018-07-24T11:25:36.932Z,990.93
2018-07-24T11:27:29.846Z,990.91
2018-07-24T11:28:29.754Z,990.91
2018-07-24T11:30:22.521Z,990.90
2018-07-24T11:31:22.426Z,990.91
2018-07-24T11:33:15.317Z,990.89
2018-07-24T11:34:15.177Z,990.93
2018-07-24T11:36:08.143Z,990.90
2018-07-24T11:37:07.931Z,990.88
2018-07-24T11:39:00.782Z,990.85
2018-07-24T11:40:00.674Z,990.88
2018-07-24T11:41:53.506Z,990.85
2018-07-24T11:42:53.466Z,990.81
2018-07-24T11:44:46.274Z,990.82
2018-07-24T11:45:46.185Z,990.89
2018-07-24T11:47:39.542Z,990.84
2018-07-24T11:48:39.440Z,990.80
2018-07-24T11:50:32.272Z,990.77
2018-07-24T11:51:32.225Z,990.80
2018-07-24T11:53:25.053Z,990.78
2018-07-24T11:54:24.981Z,990.74
2018-07-24T11:56:17.783Z,990.75
2018-07-24T11:57:17.687Z,990.76
2018-07-24T11:59:10.539Z,990.72
2018-07-24T12:00:10.444Z,990.71
2018-07-24T12:02:03.301Z,990.67
2018-07-24T12:03:03.181Z,990.64
2018-07-24T12:04:56.059Z,990.61
2018-07-24T12:05:55.926Z,990.60
2018-07-24T12:07:48.785Z,990.58
2018-07-24T12:08:48.678Z,990.61
2018-07-24T12:10:41.545Z,990.62
2018-07-24T12:11:41.514Z,990.59
2018-07-24T12:13:34.285Z,990.60
2018-07-24T12:14:34.237Z,990.53
2018-07-24T12:16:27.056Z,990.49
2018-07-24T12:17:26.950Z,990.51
2018-07-24T12:19:19.820Z,990.50
2018-07-24T12:20:19.698Z,990.56
2018-07-24T12:22:12.528Z,990.53
2018-07-24T12:23:12.433Z,990.49
2018-07-24T12:25:05.280Z,990.45
2018-07-24T12:26:05.184Z,990.49
2018-07-24T12:27:58.015Z,990.45
2018-07-24T12:28:57.939Z,990.49
2018-07-24T12:30:50.776Z,990.36
2018-07-24T12:31:50.675Z,990.30
2018-07-24T12:33:43.549Z,990.34
2018-07-24T12:34:43.431Z,990.32
2018-07-24T12:36:36.275Z,990.29
2018-07-24T12:37:36.180Z,990.36
2018-07-24T12:39:29.018Z,990.33
2018-07-24T12:40:28.931Z,990.31
2018-07-24T12:42:21.773Z,990.34
2018-07-24T12:43:21.698Z,990.31
2018-07-24T12:45:14.533Z,990.22
2018-07-24T12:46:14.432Z,990.19
2018-07-24T12:48:07.268Z,990.19
2018-07-24T12:49:07.179Z,990.18
2018-07-24T12:51:00.030Z,990.17
2018-07-24T12:51:59.928Z,990.21
2018-07-24T12:53:52.783Z,990.18
2018-07-24T12:54:52.682Z,990.12
2018-07-24T12:56:45.524Z,990.11
2018-07-24T12:57:45.431Z,990.17
2018-07-24T12:59:38.254Z,990.11
2018-07-24T13:00:38.173Z,990.15
2018-07-24T13:02:31.047Z,990.15
2018-07-24T13:03:30.931Z,990.18
2018-07-24T13:05:23.764Z,990.17
2018-07-24T13:06:23.690Z,990.15
2018-07-24T13:08:16.593Z,990.16
2018-07-24T13:09:16.433Z,990.09
2018-07-24T13:11:09.314Z,990.08
2018-07-24T13:12:09.181Z,990.09
2018-07-24T13:14:02.040Z,990.11
2018-07-24T13:15:01.944Z,990.10
2018-07-24T13:16:55.126Z,990.07
2018-07-24T13:17:55.029Z,990.09
2018-07-24T13:19:47.812Z,990.00
2018-07-24T13:20:47.770Z,990.04
2018-07-24T13:22:40.611Z,990.02
2018-07-24T13:23:40.487Z,989.97
2018-07-24T13:25:33.855Z,990.05
2018-07-24T13:26:33.232Z,990.03
2018-07-24T13:28:26.058Z,990.07
2018-07-24T13:29:26.001Z,990.04
2018-07-24T13:31:18.823Z,990.02
2018-07-24T13:32:18.725Z,990.02
2018-07-24T13:34:11.599Z,989.97
2018-07-24T13:35:11.495Z,989.97
2018-07-24T13:37:04.350Z,989.96
2018-07-24T13:38:04.236Z,989.96
2018-07-24T13:39:57.057Z,989.97
2018-07-24T13:40:56.997Z,990.00
2018-07-24T13:42:49.902Z,989.94
2018-07-24T13:43:49.722Z,989.94
2018-07-24T13:45:42.572Z,989.93
2018-07-24T13:46:42.482Z,989.93
2018-07-24T13:48:35.322Z,989.88
2018-07-24T13:49:35.228Z,989.95
2018-07-24T13:51:29.004Z,989.89
2018-07-24T13:52:27.977Z,989.86
2018-07-24T13:54:26.478Z,989.95
2018-07-24T13:57:17.958Z,989.88
2018-07-24T13:58:17.870Z,989.89
2018-07-24T14:00:10.740Z,989.90
2018-07-24T14:01:10.627Z,989.89
2018-07-24T14:03:03.499Z,989.90
2018-07-24T14:04:03.384Z,989.90
2018-07-24T14:05:56.226Z,989.92
2018-07-24T14:06:56.121Z,989.93
2018-07-24T14:08:48.972Z,989.88
2018-07-24T14:09:48.878Z,989.82
2018-07-24T14:11:41.715Z,989.84
2018-07-24T14:12:41.638Z,989.78
2018-07-24T14:14:34.462Z,989.87
2018-07-24T14:15:34.396Z,989.80
2018-07-24T14:17:27.234Z,989.73
2018-07-24T14:18:27.126Z,989.78
2018-07-24T14:20:19.972Z,989.79
2018-07-24T14:21:19.898Z,989.72
2018-07-24T14:23:12.731Z,989.72
2018-07-24T14:24:12.626Z,989.76
2018-07-24T14:26:05.466Z,989.74
2018-07-24T14:27:05.382Z,989.72
2018-07-24T14:29:02.154Z,989.73
2018-07-24T14:30:02.726Z,989.73
2018-07-24T14:31:53.755Z,989.78
2018-07-24T14:32:53.663Z,989.78
2018-07-24T14:34:46.482Z,989.73
2018-07-24T14:35:46.385Z,989.80
2018-07-24T14:37:39.233Z,989.73
2018-07-24T14:38:39.139Z,989.73
2018-07-24T14:40:32.528Z,989.74
2018-07-24T14:41:32.404Z,989.76
2018-07-24T14:43:25.258Z,989.72
2018-07-24T14:44:25.149Z,989.66
2018-07-24T14:46:18.036Z,989.66
2018-07-24T14:47:17.903Z,989.65
2018-07-24T14:49:10.739Z,989.64
2018-07-24T14:50:10.650Z,989.60
2018-07-24T14:52:03.516Z,989.69
2018-07-24T14:53:03.445Z,989.72
2018-07-24T14:54:56.370Z,989.71
2018-07-24T14:55:56.753Z,989.66
2018-07-24T14:57:49.208Z,989.58
2018-07-24T14:58:49.155Z,989.57
2018-07-24T15:00:41.928Z,989.58
2018-07-24T15:01:41.857Z,989.61
2018-07-24T15:03:34.710Z,989.55
2018-07-24T15:04:34.627Z,989.56
2018-07-24T15:06:27.478Z,989.53
2018-07-24T15:07:27.373Z,989.53
2018-07-24T15:09:20.923Z,989.53
2018-07-24T15:10:20.339Z,989.59
2018-07-24T15:12:13.161Z,989.55
2018-07-24T15:13:13.064Z,989.51
2018-07-24T15:15:05.912Z,989.51
2018-07-24T15:16:05.831Z,989.51
2018-07-24T15:17:58.650Z,989.50
2018-07-24T15:18:58.566Z,989.52
2018-07-24T15:20:52.019Z,989.50
2018-07-24T15:21:51.820Z,989.49
2018-07-24T15:23:44.705Z,989.46
2018-07-24T15:24:44.625Z,989.45
2018-07-24T15:26:37.422Z,989.47
2018-07-24T15:27:37.339Z,989.46
2018-07-24T15:29:30.680Z,989.47
2018-07-24T15:30:30.683Z,989.49
2018-07-24T15:32:23.434Z,989.50
2018-07-24T15:33:23.327Z,989.42
2018-07-24T15:35:16.169Z,989.45
2018-07-24T15:36:16.178Z,989.48
2018-07-24T15:38:08.918Z,989.48
2018-07-24T15:39:08.850Z,989.49
2018-07-24T15:41:01.708Z,989.45
2018-07-24T15:42:01.588Z,989.45
2018-07-24T15:43:54.423Z,989.41
2018-07-24T15:44:54.322Z,989.40
2018-07-24T15:46:47.233Z,989.38
2018-07-24T15:47:47.073Z,989.37
2018-07-24T15:49:39.912Z,989.38
2018-07-24T15:50:39.827Z,989.40
2018-07-24T15:52:32.655Z,989.34
2018-07-24T15:53:32.585Z,989.36
2018-07-24T15:55:25.416Z,989.37
2018-07-24T15:56:25.329Z,989.33
2018-07-24T15:58:18.172Z,989.34
2018-07-24T15:59:18.082Z,989.35
2018-07-24T16:01:10.901Z,989.38
2018-07-24T16:02:10.823Z,989.41
2018-07-24T16:04:03.659Z,989.45
2018-07-24T16:05:03.573Z,989.48
2018-07-24T16:06:56.437Z,989.47
2018-07-24T16:07:56.322Z,989.50
2018-07-24T16:09:49.182Z,989.64
2018-07-24T16:10:49.077Z,989.61
2018-07-24T16:12:41.926Z,989.64
2018-07-24T16:13:41.822Z,989.64
2018-07-24T16:15:34.802Z,989.67
2018-07-24T16:16:34.627Z,989.66
2018-07-24T16:18:28.439Z,989.69
2018-07-24T16:19:28.366Z,989.71
2018-07-24T16:21:21.195Z,989.69
2018-07-24T16:22:21.119Z,989.71
2018-07-24T16:24:13.948Z,989.73
2018-07-24T16:25:13.917Z,989.73
2018-07-24T16:27:06.736Z,989.70
2018-07-24T16:28:06.613Z,989.73
2018-07-24T16:29:59.452Z,989.70
2018-07-24T16:30:59.371Z,989.74
2018-07-24T16:32:52.282Z,989.78
2018-07-24T16:33:52.211Z,989.76
2018-07-24T16:35:45.066Z,989.75
2018-07-24T16:36:44.965Z,989.79
2018-07-24T16:38:37.806Z,989.79
2018-07-24T16:39:37.709Z,989.81
2018-07-24T16:41:31.048Z,989.78
2018-07-24T16:42:30.960Z,989.78
2018-07-24T16:44:23.810Z,989.77
2018-07-24T16:45:23.711Z,989.75
2018-07-24T16:47:16.562Z,989.77
2018-07-24T16:48:16.461Z,989.74
2018-07-24T16:50:09.321Z,989.75
2018-07-24T16:51:09.277Z,989.73
2018-07-24T16:53:02.056Z,989.76
2018-07-24T16:54:01.959Z,989.74
2018-07-24T16:55:54.799Z,989.76
2018-07-24T16:56:54.708Z,989.76
2018-07-24T16:58:47.561Z,989.75
2018-07-24T16:59:47.469Z,989.71
2018-07-24T17:01:41.324Z,989.78
2018-07-24T17:02:41.244Z,989.79
2018-07-24T17:04:34.069Z,989.78
2018-07-24T17:05:33.991Z,989.80
2018-07-24T17:07:26.827Z,989.80
2018-07-24T17:08:26.751Z,989.82
2018-07-24T17:10:19.575Z,989.78
2018-07-24T17:11:19.510Z,989.77
2018-07-24T17:13:12.333Z,989.83
2018-07-24T17:14:12.234Z,989.79
2018-07-24T17:16:05.081Z,989.83
2018-07-24T17:17:05.042Z,989.82
2018-07-24T17:18:58.390Z,989.83
2018-07-24T17:19:57.748Z,989.85
2018-07-24T17:21:50.587Z,989.79
2018-07-24T17:22:50.526Z,989.86
2018-07-24T17:24:43.423Z,989.88
2018-07-24T17:25:43.337Z,989.90
2018-07-24T17:27:36.293Z,989.92
2018-07-24T17:28:36.177Z,989.90
2018-07-24T17:30:28.924Z,989.90
2018-07-24T17:31:28.859Z,989.89
2018-07-24T17:33:21.699Z,989.91
2018-07-24T17:34:21.597Z,989.89
2018-07-24T17:36:14.439Z,989.92
2018-07-24T17:37:14.364Z,989.90
2018-07-24T17:39:07.198Z,989.93
2018-07-24T17:40:07.089Z,989.94
2018-07-24T17:42:00.976Z,989.92
2018-07-24T17:43:00.868Z,989.87
2018-07-24T17:44:53.714Z,989.91
2018-07-24T17:45:53.645Z,989.92
2018-07-24T17:47:46.444Z,989.93
2018-07-24T17:48:46.369Z,989.95
2018-07-24T17:50:39.196Z,989.87
2018-07-24T17:51:39.126Z,989.87
2018-07-24T17:53:32.023Z,989.89
2018-07-24T17:54:31.890Z,989.90
2018-07-24T17:56:24.687Z,989.87
2018-07-24T17:57:24.622Z,989.94
2018-07-24T17:59:17.471Z,989.90